sensor_id;sensor_type;location;lat;lon;timestamp;pressure;altitude;pressure_sealevel;temperature;humidity
62697;BME280;48761;42.680;23.312;2022-12-29T00:00:48;95731.94;;;5.94;75.01
62697;BME280;48761;42.680;23.312;2022-12-29T00:03:15;95755.25;;;6.07;75.22
62697;BME280;48761;42.680;23.312;2022-12-29T00:05:41;95713.47;;;5.70;75.84
62697;BME280;48761;42.680;23.312;2022-12-29T00:08:08;95756.03;;;5.85;76.30
62697;BME280;48761;42.680;23.312;2022-12-29T00:10:34;95761.25;;;5.87;76.17
62697;BME280;48761;42.680;23.312;2022-12-29T00:13:00;95749.25;;;5.78;76.12
62697;BME280;48761;42.680;23.312;2022-12-29T00:15:26;95758.59;;;5.87;76.40
62697;BME280;48761;42.680;23.312;2022-12-29T00:17:52;95758.09;;;6.01;75.93
62697;BME280;48761;42.680;23.312;2022-12-29T00:20:18;95753.97;;;5.93;75.98
62697;BME280;48761;42.680;23.312;2022-12-29T00:22:43;95757.38;;;5.71;76.86
62697;BME280;48761;42.680;23.312;2022-12-29T00:25:11;95767.38;;;5.63;77.44
62697;BME280;48761;42.680;23.312;2022-12-29T00:27:37;95740.75;;;5.45;77.55
62697;BME280;48761;42.680;23.312;2022-12-29T00:30:20;95769.03;;;5.40;77.72
62697;BME280;48761;42.680;23.312;2022-12-29T00:32:47;95773.72;;;5.32;78.58
62697;BME280;48761;42.680;23.312;2022-12-29T00:35:20;95775.88;;;5.20;78.84
62697;BME280;48761;42.680;23.312;2022-12-29T00:37:49;95778.34;;;5.25;79.19
62697;BME280;48761;42.680;23.312;2022-12-29T00:40:15;95772.63;;;5.12;79.55
62697;BME280;48761;42.680;23.312;2022-12-29T00:42:41;95776.44;;;5.29;79.04
62697;BME280;48761;42.680;23.312;2022-12-29T00:45:08;95785.06;;;5.34;79.16
62697;BME280;48761;42.680;23.312;2022-12-29T00:47:33;95781.72;;;5.29;79.30
62697;BME280;48761;42.680;23.312;2022-12-29T00:49:59;95783.84;;;5.44;78.48
62697;BME280;48761;42.680;23.312;2022-12-29T00:52:25;95752.94;;;5.22;78.95
62697;BME280;48761;42.680;23.312;2022-12-29T00:54:51;95789.69;;;5.27;79.43
62697;BME280;48761;42.680;23.312;2022-12-29T00:57:18;95781.72;;;5.29;79.86
62697;BME280;48761;42.680;23.312;2022-12-29T00:59:44;95772.53;;;5.15;79.66
62697;BME280;48761;42.680;23.312;2022-12-29T01:02:10;95785.38;;;5.24;79.42
62697;BME280;48761;42.680;23.312;2022-12-29T01:04:36;95778.84;;;5.09;79.68
62697;BME280;48761;42.680;23.312;2022-12-29T01:07:03;95760.00;;;4.95;80.12
62697;BME280;48761;42.680;23.312;2022-12-29T01:09:28;95781.41;;;5.12;79.71
62697;BME280;48761;42.680;23.312;2022-12-29T01:11:55;95782.25;;;5.13;79.61
62697;BME280;48761;42.680;23.312;2022-12-29T01:14:22;95768.38;;;5.08;79.58
62697;BME280;48761;42.680;23.312;2022-12-29T01:16:48;95779.72;;;5.10;79.10
62697;BME280;48761;42.680;23.312;2022-12-29T01:19:15;95768.53;;;5.29;79.10
62697;BME280;48761;42.680;23.312;2022-12-29T01:21:41;95772.59;;;5.39;78.76
62697;BME280;48761;42.680;23.312;2022-12-29T01:24:08;95756.72;;;5.15;78.46
62697;BME280;48761;42.680;23.312;2022-12-29T01:26:34;95762.16;;;5.10;78.57
62697;BME280;48761;42.680;23.312;2022-12-29T01:29:00;95767.03;;;5.21;78.50
62697;BME280;48761;42.680;23.312;2022-12-29T01:31:26;95731.75;;;4.98;77.95
62697;BME280;48761;42.680;23.312;2022-12-29T01:33:52;95707.66;;;4.84;78.14
62697;BME280;48761;42.680;23.312;2022-12-29T01:36:18;95756.63;;;5.18;78.02
62697;BME280;48761;42.680;23.312;2022-12-29T01:38:45;95752.25;;;5.17;78.12
62697;BME280;48761;42.680;23.312;2022-12-29T01:41:12;95740.38;;;5.03;78.02
62697;BME280;48761;42.680;23.312;2022-12-29T01:43:58;95726.00;;;4.87;78.22
62697;BME280;48761;42.680;23.312;2022-12-29T01:46:39;95734.16;;;4.79;78.91
62697;BME280;48761;42.680;23.312;2022-12-29T01:49:31;95746.38;;;4.81;78.89
62697;BME280;48761;42.680;23.312;2022-12-29T01:52:01;95757.22;;;4.72;79.20
62697;BME280;48761;42.680;23.312;2022-12-29T01:54:39;95749.88;;;4.82;79.34
62697;BME280;48761;42.680;23.312;2022-12-29T01:57:14;95741.09;;;4.81;79.15
62697;BME280;48761;42.680;23.312;2022-12-29T01:59:48;95716.84;;;4.44;78.97
62697;BME280;48761;42.680;23.312;2022-12-29T02:02:16;95750.31;;;4.68;79.27
62697;BME280;48761;42.680;23.312;2022-12-29T02:04:43;95747.75;;;4.66;78.84
62697;BME280;48761;42.680;23.312;2022-12-29T02:07:15;95712.03;;;4.57;79.24
62697;BME280;48761;42.680;23.312;2022-12-29T02:09:42;95730.97;;;4.69;78.97
62697;BME280;48761;42.680;23.312;2022-12-29T02:12:09;95725.59;;;4.72;79.04
62697;BME280;48761;42.680;23.312;2022-12-29T02:14:36;95735.94;;;4.78;79.33
62697;BME280;48761;42.680;23.312;2022-12-29T02:31:31;95731.75;;;4.44;79.57
62697;BME280;48761;42.680;23.312;2022-12-29T02:37:00;95733.69;;;4.39;80.11
62697;BME280;48761;42.680;23.312;2022-12-29T02:39:55;95722.63;;;4.27;80.24
62697;BME280;48761;42.680;23.312;2022-12-29T02:42:35;95736.00;;;4.48;79.98
62697;BME280;48761;42.680;23.312;2022-12-29T02:45:27;95742.81;;;4.55;79.48
62697;BME280;48761;42.680;23.312;2022-12-29T02:51:10;95716.50;;;4.82;78.55
62697;BME280;48761;42.680;23.312;2022-12-29T02:53:39;95735.66;;;4.88;78.42
62697;BME280;48761;42.680;23.312;2022-12-29T02:56:05;95728.72;;;5.11;77.61
62697;BME280;48761;42.680;23.312;2022-12-29T02:58:31;95720.44;;;5.22;77.43
62697;BME280;48761;42.680;23.312;2022-12-29T03:01:23;95716.09;;;5.21;77.19
62697;BME280;48761;42.680;23.312;2022-12-29T03:09:48;95719.75;;;5.42;75.98
62697;BME280;48761;42.680;23.312;2022-12-29T03:12:46;95705.84;;;5.11;77.05
62697;BME280;48761;42.680;23.312;2022-12-29T03:15:22;95714.84;;;5.06;77.02
62697;BME280;48761;42.680;23.312;2022-12-29T03:18:02;95711.53;;;5.00;77.75
62697;BME280;48761;42.680;23.312;2022-12-29T03:20:54;95674.81;;;4.94;77.24
62697;BME280;48761;42.680;23.312;2022-12-29T03:23:22;95706.72;;;5.12;77.08
62697;BME280;48761;42.680;23.312;2022-12-29T03:25:53;95692.41;;;5.19;77.14
62697;BME280;48761;42.680;23.312;2022-12-29T03:28:28;95702.16;;;5.17;76.99
62697;BME280;48761;42.680;23.312;2022-12-29T03:30:57;95704.47;;;5.26;76.36
62697;BME280;48761;42.680;23.312;2022-12-29T03:33:27;95697.59;;;5.22;76.37
62697;BME280;48761;42.680;23.312;2022-12-29T03:35:58;95692.13;;;5.01;76.97
62697;BME280;48761;42.680;23.312;2022-12-29T03:38:33;95708.66;;;5.07;76.77
62697;BME280;48761;42.680;23.312;2022-12-29T03:41:06;95704.31;;;5.06;76.64
62697;BME280;48761;42.680;23.312;2022-12-29T03:43:33;95703.28;;;5.10;76.82
62697;BME280;48761;42.680;23.312;2022-12-29T03:45:59;95706.38;;;5.21;76.37
62697;BME280;48761;42.680;23.312;2022-12-29T03:48:25;95711.91;;;5.15;76.31
62697;BME280;48761;42.680;23.312;2022-12-29T03:50:51;95715.84;;;5.01;76.76
62697;BME280;48761;42.680;23.312;2022-12-29T03:53:17;95732.31;;;4.82;77.58
62697;BME280;48761;42.680;23.312;2022-12-29T03:55:42;95730.72;;;4.50;78.82
62697;BME280;48761;42.680;23.312;2022-12-29T03:58:08;95713.75;;;4.01;79.87
62697;BME280;48761;42.680;23.312;2022-12-29T04:00:34;95735.97;;;3.90;81.12
62697;BME280;48761;42.680;23.312;2022-12-29T04:03:00;95731.31;;;3.38;82.64
62697;BME280;48761;42.680;23.312;2022-12-29T04:05:26;95740.75;;;3.45;82.91
62697;BME280;48761;42.680;23.312;2022-12-29T04:07:52;95730.97;;;3.51;82.25
62697;BME280;48761;42.680;23.312;2022-12-29T04:10:20;95732.16;;;3.70;82.07
62697;BME280;48761;42.680;23.312;2022-12-29T04:12:45;95706.91;;;3.65;81.70
62697;BME280;48761;42.680;23.312;2022-12-29T04:15:12;95700.91;;;3.90;80.73
62697;BME280;48761;42.680;23.312;2022-12-29T04:17:38;95736.16;;;4.14;80.37
62697;BME280;48761;42.680;23.312;2022-12-29T04:20:04;95740.56;;;4.14;79.64
62697;BME280;48761;42.680;23.312;2022-12-29T04:22:30;95738.59;;;4.21;79.97
62697;BME280;48761;42.680;23.312;2022-12-29T04:24:56;95728.28;;;4.14;79.70
62697;BME280;48761;42.680;23.312;2022-12-29T04:27:22;95741.25;;;4.21;79.58
62697;BME280;48761;42.680;23.312;2022-12-29T04:29:48;95735.75;;;3.98;80.48
62697;BME280;48761;42.680;23.312;2022-12-29T04:32:14;95744.91;;;3.85;80.69
62697;BME280;48761;42.680;23.312;2022-12-29T04:34:39;95749.19;;;3.89;81.21
62697;BME280;48761;42.680;23.312;2022-12-29T04:37:06;95751.13;;;3.82;81.12
62697;BME280;48761;42.680;23.312;2022-12-29T04:39:31;95745.25;;;3.72;81.23
62697;BME280;48761;42.680;23.312;2022-12-29T04:41:57;95752.19;;;3.76;81.54
62697;BME280;48761;42.680;23.312;2022-12-29T04:44:23;95758.84;;;3.88;80.95
62697;BME280;48761;42.680;23.312;2022-12-29T04:46:49;95754.63;;;4.13;80.57
62697;BME280;48761;42.680;23.312;2022-12-29T04:49:15;95728.22;;;4.16;79.33
62697;BME280;48761;42.680;23.312;2022-12-29T04:51:41;95762.41;;;4.46;78.87
62697;BME280;48761;42.680;23.312;2022-12-29T04:54:07;95760.25;;;4.59;78.29
62697;BME280;48761;42.680;23.312;2022-12-29T04:56:32;95773.22;;;4.66;77.84
62697;BME280;48761;42.680;23.312;2022-12-29T04:58:59;95758.50;;;4.60;77.48
62697;BME280;48761;42.680;23.312;2022-12-29T05:01:24;95762.59;;;4.69;77.32
62697;BME280;48761;42.680;23.312;2022-12-29T05:03:50;95769.28;;;4.79;76.95
62697;BME280;48761;42.680;23.312;2022-12-29T05:06:16;95766.31;;;4.62;76.62
62697;BME280;48761;42.680;23.312;2022-12-29T05:08:42;95775.69;;;4.70;76.95
62697;BME280;48761;42.680;23.312;2022-12-29T05:11:08;95756.41;;;4.70;77.04
62697;BME280;48761;42.680;23.312;2022-12-29T05:13:34;95758.78;;;4.78;76.76
62697;BME280;48761;42.680;23.312;2022-12-29T05:16:00;95742.00;;;4.53;76.78
62697;BME280;48761;42.680;23.312;2022-12-29T05:18:26;95780.72;;;4.78;77.03
62697;BME280;48761;42.680;23.312;2022-12-29T05:20:52;95735.69;;;4.59;76.72
62697;BME280;48761;42.680;23.312;2022-12-29T05:23:18;95738.16;;;4.64;77.09
62697;BME280;48761;42.680;23.312;2022-12-29T05:25:44;95774.47;;;4.82;76.79
62697;BME280;48761;42.680;23.312;2022-12-29T05:28:10;95752.53;;;4.80;76.53
62697;BME280;48761;42.680;23.312;2022-12-29T05:30:35;95739.38;;;4.80;76.53
62697;BME280;48761;42.680;23.312;2022-12-29T05:33:01;95764.06;;;5.05;75.99
62697;BME280;48761;42.680;23.312;2022-12-29T05:35:27;95770.22;;;5.06;76.03
62697;BME280;48761;42.680;23.312;2022-12-29T05:37:53;95772.22;;;4.97;76.26
62697;BME280;48761;42.680;23.312;2022-12-29T05:40:21;95779.72;;;4.82;76.87
62697;BME280;48761;42.680;23.312;2022-12-29T05:42:47;95777.13;;;4.81;77.04
62697;BME280;48761;42.680;23.312;2022-12-29T05:45:12;95770.00;;;4.85;77.20
62697;BME280;48761;42.680;23.312;2022-12-29T05:47:38;95769.75;;;4.92;77.13
62697;BME280;48761;42.680;23.312;2022-12-29T05:50:04;95769.19;;;5.10;77.03
62697;BME280;48761;42.680;23.312;2022-12-29T05:52:43;95771.09;;;5.04;76.82
62697;BME280;48761;42.680;23.312;2022-12-29T05:55:09;95774.63;;;5.05;77.06
62697;BME280;48761;42.680;23.312;2022-12-29T05:57:35;95785.25;;;5.02;76.98
62697;BME280;48761;42.680;23.312;2022-12-29T06:00:06;95780.22;;;5.21;76.82
62697;BME280;48761;42.680;23.312;2022-12-29T06:02:32;95781.00;;;5.23;76.80
62697;BME280;48761;42.680;23.312;2022-12-29T06:04:58;95778.38;;;5.23;76.89
62697;BME280;48761;42.680;23.312;2022-12-29T06:07:24;95767.84;;;5.23;76.49
62697;BME280;48761;42.680;23.312;2022-12-29T06:09:50;95765.94;;;5.01;77.29
62697;BME280;48761;42.680;23.312;2022-12-29T06:12:16;95790.56;;;5.27;77.27
62697;BME280;48761;42.680;23.312;2022-12-29T06:14:42;95790.75;;;5.21;77.57
62697;BME280;48761;42.680;23.312;2022-12-29T06:17:08;95790.56;;;5.27;77.81
62697;BME280;48761;42.680;23.312;2022-12-29T06:19:34;95797.84;;;5.19;78.15
62697;BME280;48761;42.680;23.312;2022-12-29T06:22:00;95794.97;;;5.27;78.26
62697;BME280;48761;42.680;23.312;2022-12-29T06:24:25;95786.38;;;5.47;78.17
62697;BME280;48761;42.680;23.312;2022-12-29T06:26:51;95781.19;;;5.44;77.70
62697;BME280;48761;42.680;23.312;2022-12-29T06:29:17;95794.03;;;5.55;78.08
62697;BME280;48761;42.680;23.312;2022-12-29T06:31:44;95778.63;;;5.68;77.29
62697;BME280;48761;42.680;23.312;2022-12-29T06:34:10;95785.41;;;5.76;77.41
62697;BME280;48761;42.680;23.312;2022-12-29T06:36:36;95783.66;;;5.75;76.65
62697;BME280;48761;42.680;23.312;2022-12-29T06:39:02;95773.75;;;5.81;75.99
62697;BME280;48761;42.680;23.312;2022-12-29T06:41:28;95786.34;;;5.99;76.10
62697;BME280;48761;42.680;23.312;2022-12-29T06:43:54;95802.50;;;6.15;76.31
62697;BME280;48761;42.680;23.312;2022-12-29T06:46:20;95792.59;;;6.22;75.17
62697;BME280;48761;42.680;23.312;2022-12-29T06:48:45;95792.44;;;6.25;75.40
62697;BME280;48761;42.680;23.312;2022-12-29T06:51:11;95806.06;;;6.14;75.58
62697;BME280;48761;42.680;23.312;2022-12-29T06:53:38;95794.47;;;5.92;75.14
62697;BME280;48761;42.680;23.312;2022-12-29T06:56:04;95794.66;;;5.88;75.50
62697;BME280;48761;42.680;23.312;2022-12-29T06:58:30;95800.44;;;5.74;75.89
62697;BME280;48761;42.680;23.312;2022-12-29T07:00:56;95799.72;;;5.68;75.32
62697;BME280;48761;42.680;23.312;2022-12-29T07:03:22;95802.91;;;5.53;76.23
62697;BME280;48761;42.680;23.312;2022-12-29T07:05:48;95793.16;;;5.55;76.04
62697;BME280;48761;42.680;23.312;2022-12-29T07:08:14;95808.88;;;5.83;75.14
62697;BME280;48761;42.680;23.312;2022-12-29T07:10:40;95813.56;;;6.25;74.43
62697;BME280;48761;42.680;23.312;2022-12-29T07:13:06;95806.38;;;6.53;72.48
62697;BME280;48761;42.680;23.312;2022-12-29T07:15:32;95798.88;;;6.42;71.96
62697;BME280;48761;42.680;23.312;2022-12-29T07:17:58;95810.59;;;6.81;71.73
62697;BME280;48761;42.680;23.312;2022-12-29T07:20:24;95804.97;;;7.11;70.63
62697;BME280;48761;42.680;23.312;2022-12-29T07:22:49;95790.59;;;7.39;70.09
62697;BME280;48761;42.680;23.312;2022-12-29T07:25:15;95787.75;;;7.65;68.66
62697;BME280;48761;42.680;23.312;2022-12-29T07:27:41;95795.53;;;7.89;68.24
62697;BME280;48761;42.680;23.312;2022-12-29T07:30:08;95801.94;;;8.04;66.72
62697;BME280;48761;42.680;23.312;2022-12-29T07:32:34;95797.09;;;8.14;66.67
62697;BME280;48761;42.680;23.312;2022-12-29T07:35:01;95795.06;;;8.00;66.68
62697;BME280;48761;42.680;23.312;2022-12-29T07:37:27;95799.25;;;8.25;66.38
62697;BME280;48761;42.680;23.312;2022-12-29T07:39:52;95793.25;;;8.41;65.58
62697;BME280;48761;42.680;23.312;2022-12-29T07:42:18;95780.72;;;8.45;64.89
62697;BME280;48761;42.680;23.312;2022-12-29T07:44:44;95808.00;;;8.85;63.76
62697;BME280;48761;42.680;23.312;2022-12-29T07:47:10;95795.34;;;8.92;63.37
62697;BME280;48761;42.680;23.312;2022-12-29T07:49:36;95798.53;;;8.22;64.46
62697;BME280;48761;42.680;23.312;2022-12-29T07:52:03;95806.19;;;8.09;65.11
62697;BME280;48761;42.680;23.312;2022-12-29T07:54:29;95800.06;;;7.87;66.26
62697;BME280;48761;42.680;23.312;2022-12-29T07:56:55;95805.84;;;8.16;65.04
62697;BME280;48761;42.680;23.312;2022-12-29T07:59:20;95804.56;;;8.45;63.64
62697;BME280;48761;42.680;23.312;2022-12-29T08:01:46;95817.00;;;8.63;63.56
62697;BME280;48761;42.680;23.312;2022-12-29T08:04:12;95800.31;;;8.61;63.37
62697;BME280;48761;42.680;23.312;2022-12-29T08:06:38;95816.19;;;8.02;65.02
62697;BME280;48761;42.680;23.312;2022-12-29T08:09:04;95819.72;;;8.62;64.10
62697;BME280;48761;42.680;23.312;2022-12-29T08:11:30;95824.84;;;9.04;63.21
62697;BME280;48761;42.680;23.312;2022-12-29T08:13:56;95810.84;;;9.55;61.32
62697;BME280;48761;42.680;23.312;2022-12-29T08:16:22;95797.72;;;9.70;60.59
62697;BME280;48761;42.680;23.312;2022-12-29T08:18:48;95811.66;;;10.09;59.65
62697;BME280;48761;42.680;23.312;2022-12-29T08:21:14;95794.28;;;10.19;58.96
62697;BME280;48761;42.680;23.312;2022-12-29T08:23:40;95795.19;;;10.36;58.64
62697;BME280;48761;42.680;23.312;2022-12-29T08:26:06;95768.94;;;10.30;57.91
62697;BME280;48761;42.680;23.312;2022-12-29T08:28:32;95775.97;;;10.31;57.55
62697;BME280;48761;42.680;23.312;2022-12-29T08:31:00;95801.34;;;10.37;57.73
62697;BME280;48761;42.680;23.312;2022-12-29T08:33:27;95807.66;;;10.52;57.77
62697;BME280;48761;42.680;23.312;2022-12-29T08:36:02;95811.16;;;10.52;57.40
62697;BME280;48761;42.680;23.312;2022-12-29T08:38:29;95797.66;;;10.39;57.58
62697;BME280;48761;42.680;23.312;2022-12-29T08:40:56;95804.16;;;10.51;57.18
62697;BME280;48761;42.680;23.312;2022-12-29T08:43:22;95809.09;;;10.41;57.75
62697;BME280;48761;42.680;23.312;2022-12-29T08:45:48;95773.72;;;10.39;56.99
62697;BME280;48761;42.680;23.312;2022-12-29T08:48:15;95801.13;;;10.41;56.79
62697;BME280;48761;42.680;23.312;2022-12-29T08:50:43;95808.03;;;10.28;57.86
62697;BME280;48761;42.680;23.312;2022-12-29T08:53:09;95809.28;;;9.69;58.92
62697;BME280;48761;42.680;23.312;2022-12-29T08:55:35;95787.75;;;10.09;58.34
62697;BME280;48761;42.680;23.312;2022-12-29T08:58:02;95778.53;;;10.32;57.57
62697;BME280;48761;42.680;23.312;2022-12-29T09:00:28;95789.06;;;10.68;57.30
62697;BME280;48761;42.680;23.312;2022-12-29T09:02:54;95795.66;;;10.77;56.66
62697;BME280;48761;42.680;23.312;2022-12-29T09:05:21;95777.72;;;10.64;56.55
62697;BME280;48761;42.680;23.312;2022-12-29T09:07:47;95782.66;;;10.38;57.57
62697;BME280;48761;42.680;23.312;2022-12-29T09:10:13;95768.97;;;10.62;57.01
62697;BME280;48761;42.680;23.312;2022-12-29T09:12:39;95787.00;;;10.73;56.84
62697;BME280;48761;42.680;23.312;2022-12-29T09:15:05;95779.88;;;10.74;56.52
62697;BME280;48761;42.680;23.312;2022-12-29T09:17:32;95779.63;;;10.62;56.93
62697;BME280;48761;42.680;23.312;2022-12-29T09:19:57;95778.66;;;10.96;56.42
62697;BME280;48761;42.680;23.312;2022-12-29T09:22:23;95773.06;;;11.17;55.90
62697;BME280;48761;42.680;23.312;2022-12-29T09:24:49;95766.22;;;10.96;56.15
62697;BME280;48761;42.680;23.312;2022-12-29T09:27:15;95778.31;;;11.02;56.28
62697;BME280;48761;42.680;23.312;2022-12-29T09:29:41;95775.13;;;11.12;56.29
62697;BME280;48761;42.680;23.312;2022-12-29T09:32:07;95777.72;;;10.81;57.12
62697;BME280;48761;42.680;23.312;2022-12-29T09:34:34;95763.81;;;10.43;57.50
62697;BME280;48761;42.680;23.312;2022-12-29T09:37:00;95772.94;;;10.71;57.09
62697;BME280;48761;42.680;23.312;2022-12-29T09:39:26;95771.34;;;10.35;58.35
62697;BME280;48761;42.680;23.312;2022-12-29T09:42:04;95765.03;;;10.53;57.78
62697;BME280;48761;42.680;23.312;2022-12-29T09:45:10;95755.94;;;10.41;58.27
62697;BME280;48761;42.680;23.312;2022-12-29T09:47:41;95755.94;;;10.41;58.22
62697;BME280;48761;42.680;23.312;2022-12-29T09:53:18;95752.31;;;10.42;58.27
62697;BME280;48761;42.680;23.312;2022-12-29T09:55:49;95744.03;;;10.81;57.34
62697;BME280;48761;42.680;23.312;2022-12-29T09:58:28;95742.81;;;11.18;57.05
62697;BME280;48761;42.680;23.312;2022-12-29T10:01:07;95735.91;;;11.61;55.28
62697;BME280;48761;42.680;23.312;2022-12-29T10:03:51;95733.78;;;11.37;55.49
62697;BME280;48761;42.680;23.312;2022-12-29T10:06:46;95736.16;;;10.63;57.10
62697;BME280;48761;42.680;23.312;2022-12-29T10:09:31;95729.53;;;10.54;57.72
62697;BME280;48761;42.680;23.312;2022-12-29T10:15:17;95723.06;;;10.91;57.21
62697;BME280;48761;42.680;23.312;2022-12-29T10:21:08;95722.56;;;11.15;56.69
62697;BME280;48761;42.680;23.312;2022-12-29T10:24:04;95712.16;;;10.96;56.96
62697;BME280;48761;42.680;23.312;2022-12-29T10:26:37;95712.25;;;11.25;56.72
62697;BME280;48761;42.680;23.312;2022-12-29T10:29:11;95711.59;;;11.67;55.59
62697;BME280;48761;42.680;23.312;2022-12-29T10:31:43;95705.16;;;11.40;55.88
62697;BME280;48761;42.680;23.312;2022-12-29T10:34:34;95700.88;;;11.38;55.65
62697;BME280;48761;42.680;23.312;2022-12-29T10:37:13;95707.75;;;11.71;54.86
62697;BME280;48761;42.680;23.312;2022-12-29T10:39:52;95705.88;;;11.73;54.66
62697;BME280;48761;42.680;23.312;2022-12-29T10:42:37;95704.22;;;11.10;55.64
62697;BME280;48761;42.680;23.312;2022-12-29T10:45:05;95691.50;;;11.16;56.45
62697;BME280;48761;42.680;23.312;2022-12-29T10:47:38;95690.88;;;10.96;56.20
62697;BME280;48761;42.680;23.312;2022-12-29T10:50:12;95680.38;;;10.78;57.17
62697;BME280;48761;42.680;23.312;2022-12-29T10:52:39;95694.91;;;10.56;57.71
62697;BME280;48761;42.680;23.312;2022-12-29T10:55:11;95685.34;;;10.36;58.31
62697;BME280;48761;42.680;23.312;2022-12-29T10:57:43;95685.09;;;10.73;57.79
62697;BME280;48761;42.680;23.312;2022-12-29T11:00:15;95666.22;;;11.08;56.63
62697;BME280;48761;42.680;23.312;2022-12-29T11:07:53;95669.22;;;11.48;56.11
62697;BME280;48761;42.680;23.312;2022-12-29T11:10:39;95659.63;;;11.45;55.75
62697;BME280;48761;42.680;23.312;2022-12-29T11:15:42;95658.25;;;10.92;57.10
62697;BME280;48761;42.680;23.312;2022-12-29T11:18:35;95654.84;;;10.90;57.39
62697;BME280;48761;42.680;23.312;2022-12-29T11:21:04;95660.16;;;10.90;57.27
62697;BME280;48761;42.680;23.312;2022-12-29T11:26:21;95646.53;;;11.11;57.24
62697;BME280;48761;42.680;23.312;2022-12-29T11:31:43;95642.75;;;11.15;56.92
62697;BME280;48761;42.680;23.312;2022-12-29T11:34:17;95609.09;;;10.69;57.88
62697;BME280;48761;42.680;23.312;2022-12-29T11:36:43;95645.84;;;11.07;57.90
62697;BME280;48761;42.680;23.312;2022-12-29T11:39:38;95621.66;;;11.12;57.48
62697;BME280;48761;42.680;23.312;2022-12-29T11:42:12;95630.28;;;11.01;57.89
62697;BME280;48761;42.680;23.312;2022-12-29T11:44:44;95632.59;;;11.22;57.89
62697;BME280;48761;42.680;23.312;2022-12-29T11:47:19;95641.69;;;11.18;57.79
62697;BME280;48761;42.680;23.312;2022-12-29T11:49:51;95644.75;;;11.12;58.27
62697;BME280;48761;42.680;23.312;2022-12-29T11:52:22;95638.88;;;11.36;57.74
62697;BME280;48761;42.680;23.312;2022-12-29T11:54:49;95605.03;;;11.38;57.18
62697;BME280;48761;42.680;23.312;2022-12-29T11:57:17;95639.84;;;11.64;57.23
62697;BME280;48761;42.680;23.312;2022-12-29T11:59:54;95640.31;;;11.71;56.63
62697;BME280;48761;42.680;23.312;2022-12-29T12:02:26;95644.63;;;11.88;56.37
62697;BME280;48761;42.680;23.312;2022-12-29T12:05:10;95639.06;;;11.91;56.03
62697;BME280;48761;42.680;23.312;2022-12-29T12:07:40;95640.41;;;11.98;55.77
62697;BME280;48761;42.680;23.312;2022-12-29T12:10:21;95625.47;;;11.96;55.52
62697;BME280;48761;42.680;23.312;2022-12-29T12:12:50;95630.72;;;11.83;55.71
62697;BME280;48761;42.680;23.312;2022-12-29T12:15:22;95626.31;;;11.38;56.73
62697;BME280;48761;42.680;23.312;2022-12-29T12:17:54;95622.25;;;11.32;57.10
62697;BME280;48761;42.680;23.312;2022-12-29T12:26:37;95618.00;;;10.68;59.10
62697;BME280;48761;42.680;23.312;2022-12-29T12:29:22;95599.22;;;10.71;58.89
62697;BME280;48761;42.680;23.312;2022-12-29T12:34:38;95605.19;;;10.43;59.83
62697;BME280;48761;42.680;23.312;2022-12-29T12:42:31;95607.75;;;10.29;60.47
62697;BME280;48761;42.680;23.312;2022-12-29T12:50:30;95604.31;;;10.43;60.01
62697;BME280;48761;42.680;23.312;2022-12-29T12:56:08;95604.22;;;10.45;60.25
62697;BME280;48761;42.680;23.312;2022-12-29T12:59:06;95605.34;;;10.40;60.80
62697;BME280;48761;42.680;23.312;2022-12-29T13:04:39;95588.75;;;10.20;61.13
62697;BME280;48761;42.680;23.312;2022-12-29T13:27:00;95614.13;;;9.78;63.54
62697;BME280;48761;42.680;23.312;2022-12-29T13:30:05;95613.81;;;9.66;64.29
62697;BME280;48761;42.680;23.312;2022-12-29T13:35:20;95614.78;;;9.65;64.59
62697;BME280;48761;42.680;23.312;2022-12-29T13:37:53;95614.59;;;9.68;65.18
62697;BME280;48761;42.680;23.312;2022-12-29T13:40:23;95605.19;;;9.62;64.73
62697;BME280;48761;42.680;23.312;2022-12-29T13:42:52;95613.22;;;9.61;65.17
62697;BME280;48761;42.680;23.312;2022-12-29T13:45:21;95616.84;;;9.60;65.10
62697;BME280;48761;42.680;23.312;2022-12-29T13:50:26;95611.63;;;9.74;65.09
62697;BME280;48761;42.680;23.312;2022-12-29T13:53:19;95612.66;;;9.72;65.17
62697;BME280;48761;42.680;23.312;2022-12-29T13:55:57;95612.38;;;9.77;64.80
62697;BME280;48761;42.680;23.312;2022-12-29T14:03:51;95621.47;;;9.72;65.43
62697;BME280;48761;42.680;23.312;2022-12-29T14:08:53;95620.09;;;9.81;65.50
62697;BME280;48761;42.680;23.312;2022-12-29T14:11:22;95608.81;;;9.78;65.12
62697;BME280;48761;42.680;23.312;2022-12-29T14:13:48;95618.81;;;9.72;65.38
62697;BME280;48761;42.680;23.312;2022-12-29T14:16:32;95601.78;;;9.60;65.39
62697;BME280;48761;42.680;23.312;2022-12-29T14:19:38;95627.97;;;9.67;65.64
62697;BME280;48761;42.680;23.312;2022-12-29T14:22:05;95627.44;;;9.60;66.12
62697;BME280;48761;42.680;23.312;2022-12-29T14:27:51;95612.78;;;9.52;65.56
62697;BME280;48761;42.680;23.312;2022-12-29T14:29:50;95645.41;;;9.55;66.50
62697;BME280;48761;42.680;23.312;2022-12-29T14:34:53;95642.41;;;9.61;66.14
62697;BME280;48761;42.680;23.312;2022-12-29T14:37:25;95646.47;;;9.68;65.66
62697;BME280;48761;42.680;23.312;2022-12-29T14:42:41;95645.41;;;9.55;66.32
62697;BME280;48761;42.680;23.312;2022-12-29T14:45:28;95602.06;;;9.38;65.60
62697;BME280;48761;42.680;23.312;2022-12-29T14:47:55;95641.22;;;9.50;66.38
62697;BME280;48761;42.680;23.312;2022-12-29T14:50:43;95645.72;;;9.48;66.54
62697;BME280;48761;42.680;23.312;2022-12-29T14:53:46;95647.13;;;9.56;66.29
62697;BME280;48761;42.680;23.312;2022-12-29T14:56:15;95649.19;;;9.50;66.48
62697;BME280;48761;42.680;23.312;2022-12-29T14:58:49;95650.72;;;9.55;66.26
62697;BME280;48761;42.680;23.312;2022-12-29T15:04:03;95641.50;;;9.62;66.17
62697;BME280;48761;42.680;23.312;2022-12-29T15:06:30;95645.53;;;9.69;65.79
62697;BME280;48761;42.680;23.312;2022-12-29T15:09:12;95642.19;;;9.66;65.71
62697;BME280;48761;42.680;23.312;2022-12-29T15:11:54;95648.19;;;9.69;66.08